| time (UTC) | temp F | wind direction | speed knots | gust knots | rain 1hr in | rain 24hr in | rain mn in | humidity % | barometer mb |
| 20260902220020 | 0 | 177 | 0.0 | 0.0 | 0.00 | 0.04 | 0.00 | 1013.2 | |
| 20260902214515 | 0 | 177 | 0.0 | 0.0 | 0.00 | 0.04 | 0.04 | 1013.3 | |
| 20260902213011 | 0 | 177 | 0.0 | 0.0 | 0.00 | 0.04 | 0.04 | 1013.3 | |
| 20260902211512 | 0 | 177 | 0.0 | 0.0 | 0.00 | 0.04 | 0.04 | 1013.3 | |
| 20260902210002 | 0 | 177 | 0.0 | 0.0 | 0.00 | 0.09 | 0.04 | 1013.3 | |
| 20260902204635 | 0 | 177 | 0.0 | 0.0 | 0.00 | 0.09 | 0.04 | 1013.3 | |
| 20260902203055 | 0 | 177 | 0.0 | 0.9 | 0.00 | 0.09 | 0.04 | 1013.3 | |
| 20260902201549 | 0 | 177 | 0.0 | 0.0 | 0.00 | 0.09 | 0.04 | 1013.4 | |
| 20260902200045 | 0 | 177 | 0.0 | 0.0 | 0.00 | 0.09 | 0.04 | 1013.4 | |
| 20260902194540 | 0 | 177 | 0.0 | 0.0 | 0.00 | 0.19 | 0.04 | 1013.5 | |
| 20260902193036 | 0 | 178 | 0.0 | 0.0 | 0.00 | 0.19 | 0.04 | 1013.4 | |
| 20260902191533 | 0 | 178 | 0.0 | 0.0 | 0.00 | 0.19 | 0.04 | 1013.4 | |
| 20260902190033 | 0 | 178 | 0.0 | 1.7 | 0.00 | 0.19 | 0.04 | 1013.6 | |
| 20260902184530 | 0 | 179 | 0.0 | 3.5 | 0.00 | 0.20 | 0.04 | 1013.5 | |
| 20260902183036 | 0 | 180 | 0.9 | 7.0 | 0.00 | 0.20 | 0.04 | 1013.6 | |
| 20260902181513 | 0 | 191 | 1.7 | 5.2 | 0.00 | 0.20 | 0.04 | 1013.4 | |
| 20260902180008 | 0 | 165 | 2.6 | 7.0 | 0.00 | 0.20 | 0.04 | 1013.4 | |
| 20260902174506 | 0 | 157 | 2.6 | 8.7 | 0.00 | 0.20 | 0.04 | 1013.5 | |
| 20260902173117 | 0 | 180 | 2.6 | 7.0 | 0.00 | 0.20 | 0.04 | 1013.5 | |
| 20260902171557 | 0 | 169 | 1.7 | 5.2 | 0.00 | 0.20 | 0.04 | 1013.5 | |
| 20260902170054 | 0 | 198 | 1.7 | 4.3 | 0.00 | 0.20 | 0.04 | 1013.5 | |
| 20260902164548 | 0 | 180 | 2.6 | 8.7 | 0.00 | 0.20 | 0.04 | 1013.5 | |
| 20260902163045 | 0 | 178 | 4.3 | 7.0 | 0.00 | 0.20 | 0.04 | 1013.5 | |
| 20260902161539 | 0 | 163 | 3.5 | 9.6 | 0.00 | 0.20 | 0.04 | 1013.5 | |
| 20260902160033 | 0 | 182 | 2.6 | 7.8 | 0.00 | 0.20 | 0.04 | 1013.5 | |
| 20260902154529 | 0 | 198 | 2.6 | 7.0 | 0.00 | 0.20 | 0.04 | 1013.6 | |
| 20260902153025 | 0 | 170 | 3.5 | 8.7 | 0.00 | 0.20 | 0.04 | 1013.7 | |
| 20260902151521 | 0 | 182 | 4.3 | 10.4 | 0.00 | 0.20 | 0.04 | 1013.8 | |
| 20260902150016 | 0 | 177 | 3.5 | 9.6 | 0.00 | 0.20 | 0.04 | 1013.6 | |
| 20260902144512 | 0 | 197 | 4.3 | 9.6 | 0.00 | 0.20 | 0.04 | 1013.6 | |
| 20260902143008 | 0 | 177 | 2.6 | 9.6 | 0.00 | 0.20 | 0.04 | 1013.7 | |
| 20260902141503 | 0 | 164 | 2.6 | 8.7 | 0.00 | 0.20 | 0.04 | 1013.7 | |
| 20260902140059 | 0 | 211 | 1.7 | 8.7 | 0.00 | 0.20 | 0.04 | 1013.6 | |
| 20260902134555 | 0 | 165 | 5.2 | 12.2 | 0.00 | 0.21 | 0.04 | 1013.5 | |
| 20260902133052 | 0 | 161 | 2.6 | 12.2 | 0.00 | 0.21 | 0.04 | 1013.5 | |
| 20260902131545 | 0 | 164 | 4.3 | 12.2 | 0.00 | 0.21 | 0.04 | 1013.5 | |
| 20260902130041 | 0 | 180 | 3.5 | 8.7 | 0.00 | 0.21 | 0.04 | 1013.4 | |
| 20260902124537 | 0 | 171 | 5.2 | 9.6 | 0.00 | 0.21 | 0.04 | 1013.3 | |
| 20260902123033 | 0 | 167 | 6.1 | 12.2 | 0.00 | 0.21 | 0.04 | 1013.2 | |
| 20260902121528 | 0 | 163 | 3.5 | 11.3 | 0.00 | 0.21 | 0.04 | 1013.2 | |
| 20260902120023 | 0 | 189 | 6.1 | 13.0 | 0.00 | 0.21 | 0.04 | 1013.1 | |
| 20260902114519 | 0 | 172 | 6.1 | 13.0 | 0.00 | 0.21 | 0.04 | 1013.1 | |
| 20260902113015 | 0 | 175 | 2.6 | 7.8 | 0.00 | 0.21 | 0.04 | 1013.0 | |
| 20260902111511 | 0 | 170 | 3.5 | 8.7 | 0.00 | 0.21 | 0.04 | 1012.9 | |
| 20260902110019 | 0 | 165 | 4.3 | 17.4 | 0.00 | 0.21 | 0.04 | 1012.8 | |
| 20260902104503 | 0 | 186 | 7.0 | 13.9 | 0.00 | 0.21 | 0.04 | 1012.8 | |
| 20260902103111 | 0 | 180 | 5.2 | 13.0 | 0.00 | 0.21 | 0.04 | 1012.7 | |
| 20260902101603 | 0 | 208 | 5.2 | 10.4 | 0.00 | 0.21 | 0.04 | 1012.6 | |
| 20260902100048 | 0 | 194 | 5.2 | 12.2 | 0.00 | 0.21 | 0.04 | 1012.4 | |
| 20260902094544 | 0 | 180 | 5.2 | 13.0 | 0.00 | 0.21 | 0.04 | 1012.5 | |
| 20260902093041 | 0 | 215 | 3.5 | 10.4 | 0.00 | 0.21 | 0.04 | 1012.4 | |
| 20260902091535 | 0 | 195 | 3.5 | 13.0 | 0.00 | 0.21 | 0.04 | 1012.3 | |
| 20260902090037 | 0 | 194 | 6.1 | 12.2 | 0.00 | 0.21 | 0.04 | 1012.2 | |
| 20260902084535 | 0 | 192 | 2.6 | 12.2 | 0.00 | 0.21 | 0.04 | 1012.1 | |
| 20260902083022 | 0 | 204 | 4.3 | 11.3 | 0.00 | 0.21 | 0.04 | 1012.0 | |
| 20260902081516 | 0 | 190 | 3.5 | 10.4 | 0.00 | 0.21 | 0.04 | 1011.9 | |
| 20260902080019 | 0 | 181 | 4.3 | 10.4 | 0.00 | 0.21 | 0.04 | 1011.8 | |
| 20260902074509 | 0 | 188 | 4.3 | 10.4 | 0.00 | 0.21 | 0.04 | 1011.7 | |
| 20260902073004 | 0 | 187 | 3.5 | 8.7 | 0.00 | 0.21 | 0.04 | 1011.5 | |
| 20260902071600 | 0 | 189 | 3.5 | 8.7 | 0.01 | 0.21 | 0.04 | 1011.3 | |
| 20260902070055 | 0 | 202 | 1.7 | 5.2 | 0.02 | 0.21 | 0.04 | 1011.2 | |
| 20260902064601 | 0 | 200 | 1.7 | 6.1 | 0.02 | 0.21 | 0.04 | 1011.2 | |
| 20260902063058 | 0 | 219 | 4.3 | 11.3 | 0.02 | 0.21 | 0.04 | 1011.1 | |
| 20260902061600 | 0 | 360 | 2.6 | 6.1 | 0.02 | 0.20 | 0.03 | 1010.9 | |
| 20260902060042 | 0 | 184 | 2.6 | 7.0 | 0.02 | 0.20 | 0.02 | 1010.8 | |
| 20260902054535 | 0 | 215 | 2.6 | 6.1 | 0.02 | 0.20 | 0.02 | 1010.8 | |
| 20260902053037 | 0 | 187 | 2.6 | 9.6 | 0.02 | 0.20 | 0.02 | 1010.7 | |
| 20260902051527 | 0 | 174 | 0.0 | 0.0 | 0.01 | 0.18 | 0.01 | 1010.6 | |
| 20260902050022 | 0 | 173 | 0.0 | 1.7 | 0.00 | 0.17 | 0.00 | 1010.7 | |
| 20260902044529 | 0 | 173 | 0.0 | 2.6 | 0.00 | 0.17 | 0.00 | 1010.6 | |
| 20260902043012 | 0 | 161 | 0.9 | 4.3 | 0.00 | 0.17 | 0.00 | 1010.7 | |
| 20260902041507 | 0 | 178 | 4.3 | 10.4 | 0.00 | 0.17 | 0.00 | 1010.9 | |
| 20260902040004 | 0 | 192 | 0.0 | 0.0 | 0.00 | 0.17 | 0.00 | 1010.7 | |
| 20260902034601 | 0 | 191 | 0.0 | 0.0 | 0.00 | 0.17 | 0.00 | 1010.8 | |
| 20260902033054 | 0 | 192 | 0.0 | 0.0 | 0.00 | 0.17 | 0.00 | 1010.9 | |
| 20260902031557 | 0 | 192 | 0.0 | 0.0 | 0.00 | 0.17 | 0.00 | 1010.9 | |
| 20260902030045 | 0 | 191 | 0.0 | 0.0 | 0.00 | 0.17 | 0.00 | 1010.9 | |
| 20260902024550 | 0 | 190 | 0.0 | 0.0 | 0.00 | 0.17 | 0.00 | 1010.9 | |
| 20260902023037 | 0 | 190 | 0.0 | 0.0 | 0.00 | 0.17 | 0.00 | 1011.0 | |
| 20260902021531 | 0 | 190 | 0.0 | 0.0 | 0.00 | 0.17 | 0.00 | 1011.1 | |
| 20260902020027 | 0 | 190 | 0.0 | 0.0 | 0.00 | 0.17 | 0.00 | 1011.1 | |
| 20260902014523 | 0 | 190 | 0.0 | 0.0 | 0.00 | 0.17 | 0.00 | 1011.0 | |
| 20260902013019 | 0 | 189 | 0.0 | 0.0 | 0.00 | 0.17 | 0.00 | 1011.1 | |
| 20260902011519 | 0 | 189 | 0.0 | 0.0 | 0.00 | 0.17 | 0.00 | 1010.9 | |
| 20260902010009 | 0 | 189 | 0.0 | 0.0 | 0.00 | 0.17 | 0.00 | 1010.9 | |
| 20260902004505 | 0 | 188 | 0.0 | 0.0 | 0.00 | 0.17 | 0.00 | 1011.0 | |
| 20260902003101 | 0 | 187 | 0.0 | 0.0 | 0.00 | 0.17 | 0.00 | 1010.9 | |
| 20260902001555 | 0 | 186 | 0.0 | 0.0 | 0.00 | 0.17 | 0.00 | 1010.9 | |
| 20260902000051 | 0 | 188 | 0.0 | 0.0 | 0.00 | 0.17 | 0.00 | 1010.9 | |
| 20260901234547 | 0 | 188 | 0.0 | 1.7 | 0.00 | 0.17 | 0.00 | 1011.0 | |
| 20260901233042 | 0 | 360 | 0.0 | 3.5 | 0.00 | 0.17 | 0.00 | 1011.0 | |
| 20260901231545 | 0 | 190 | 1.7 | 3.5 | 0.00 | 0.17 | 0.00 | 1011.1 | |
| 20260901230033 | 0 | 360 | 0.9 | 3.5 | 0.00 | 0.17 | 0.00 | 1011.0 | |
| 20260901224529 | 0 | 188 | 0.0 | 2.6 | 0.00 | 0.17 | 0.00 | 1010.9 | |
| 20260901223025 | 0 | 360 | 0.0 | 3.5 | 0.00 | 0.17 | 0.00 | 1010.9 | |
| 20260901221520 | 0 | 180 | 1.7 | 6.1 | 0.00 | 0.17 | 0.00 | 1010.6 |